sensor_id;sensor_type;location;lat;lon;timestamp;temperature;humidity
42095;DHT22;27753;55.724;37.612;2023-09-30T00:01:18;15.90;90.30
42095;DHT22;27753;55.724;37.612;2023-09-30T00:03:45;15.80;90.30
42095;DHT22;27753;55.724;37.612;2023-09-30T00:06:10;15.80;90.30
42095;DHT22;27753;55.724;37.612;2023-09-30T00:08:36;15.70;90.40
42095;DHT22;27753;55.724;37.612;2023-09-30T00:11:05;15.70;90.50
42095;DHT22;27753;55.724;37.612;2023-09-30T00:13:31;15.70;90.60
42095;DHT22;27753;55.724;37.612;2023-09-30T00:15:57;15.70;90.60
42095;DHT22;27753;55.724;37.612;2023-09-30T00:18:23;15.70;90.70
42095;DHT22;27753;55.724;37.612;2023-09-30T00:20:49;15.70;90.70
42095;DHT22;27753;55.724;37.612;2023-09-30T00:23:15;15.60;90.70
42095;DHT22;27753;55.724;37.612;2023-09-30T00:25:41;15.60;90.80
42095;DHT22;27753;55.724;37.612;2023-09-30T00:28:07;15.60;90.90
42095;DHT22;27753;55.724;37.612;2023-09-30T00:30:33;15.60;91.00
42095;DHT22;27753;55.724;37.612;2023-09-30T00:32:59;15.50;91.10
42095;DHT22;27753;55.724;37.612;2023-09-30T00:35:25;15.50;91.20
42095;DHT22;27753;55.724;37.612;2023-09-30T00:37:51;15.50;91.30
42095;DHT22;27753;55.724;37.612;2023-09-30T00:40:17;15.50;91.30
42095;DHT22;27753;55.724;37.612;2023-09-30T00:42:43;15.40;91.50
42095;DHT22;27753;55.724;37.612;2023-09-30T00:45:09;15.40;91.50
42095;DHT22;27753;55.724;37.612;2023-09-30T00:47:36;15.40;91.60
42095;DHT22;27753;55.724;37.612;2023-09-30T00:50:03;15.40;91.60
42095;DHT22;27753;55.724;37.612;2023-09-30T00:52:33;15.30;91.70
42095;DHT22;27753;55.724;37.612;2023-09-30T00:55:01;15.30;91.80
42095;DHT22;27753;55.724;37.612;2023-09-30T00:57:32;15.30;92.20
42095;DHT22;27753;55.724;37.612;2023-09-30T01:00:00;15.30;91.90
42095;DHT22;27753;55.724;37.612;2023-09-30T01:02:26;15.20;92.00
42095;DHT22;27753;55.724;37.612;2023-09-30T01:04:54;15.20;92.10
42095;DHT22;27753;55.724;37.612;2023-09-30T01:07:21;15.20;92.30
42095;DHT22;27753;55.724;37.612;2023-09-30T01:09:50;15.10;92.40
42095;DHT22;27753;55.724;37.612;2023-09-30T01:12:16;15.10;92.50
42095;DHT22;27753;55.724;37.612;2023-09-30T01:14:42;15.10;92.50
42095;DHT22;27753;55.724;37.612;2023-09-30T01:17:09;15.10;92.60
42095;DHT22;27753;55.724;37.612;2023-09-30T01:19:35;15.00;92.70
42095;DHT22;27753;55.724;37.612;2023-09-30T01:22:01;15.00;92.70
42095;DHT22;27753;55.724;37.612;2023-09-30T01:24:31;15.00;92.70
42095;DHT22;27753;55.724;37.612;2023-09-30T01:27:03;15.00;92.80
42095;DHT22;27753;55.724;37.612;2023-09-30T01:29:29;15.00;92.80
42095;DHT22;27753;55.724;37.612;2023-09-30T01:31:55;15.00;92.80
42095;DHT22;27753;55.724;37.612;2023-09-30T01:36:47;15.00;92.60
42095;DHT22;27753;55.724;37.612;2023-09-30T01:39:14;15.00;92.80
42095;DHT22;27753;55.724;37.612;2023-09-30T01:41:41;15.00;92.70
42095;DHT22;27753;55.724;37.612;2023-09-30T01:44:07;14.90;92.70
42095;DHT22;27753;55.724;37.612;2023-09-30T01:46:35;15.00;92.80
42095;DHT22;27753;55.724;37.612;2023-09-30T01:49:02;15.00;92.80
42095;DHT22;27753;55.724;37.612;2023-09-30T01:51:29;14.90;92.90
42095;DHT22;27753;55.724;37.612;2023-09-30T01:53:55;14.90;93.00
42095;DHT22;27753;55.724;37.612;2023-09-30T01:56:21;14.90;93.10
42095;DHT22;27753;55.724;37.612;2023-09-30T01:58:47;14.80;93.10
42095;DHT22;27753;55.724;37.612;2023-09-30T02:01:13;14.80;93.10
42095;DHT22;27753;55.724;37.612;2023-09-30T02:03:39;14.80;93.10
42095;DHT22;27753;55.724;37.612;2023-09-30T02:06:05;14.70;93.40
42095;DHT22;27753;55.724;37.612;2023-09-30T02:08:31;14.70;93.20
42095;DHT22;27753;55.724;37.612;2023-09-30T02:10:57;14.70;93.30
42095;DHT22;27753;55.724;37.612;2023-09-30T02:13:22;14.70;93.30
42095;DHT22;27753;55.724;37.612;2023-09-30T02:15:48;14.60;93.40
42095;DHT22;27753;55.724;37.612;2023-09-30T02:18:14;14.60;93.50
42095;DHT22;27753;55.724;37.612;2023-09-30T02:20:40;14.60;93.60
42095;DHT22;27753;55.724;37.612;2023-09-30T02:23:10;14.60;93.60
42095;DHT22;27753;55.724;37.612;2023-09-30T02:25:41;14.60;93.70
42095;DHT22;27753;55.724;37.612;2023-09-30T02:28:09;14.60;93.80
42095;DHT22;27753;55.724;37.612;2023-09-30T02:30:35;14.60;93.80
42095;DHT22;27753;55.724;37.612;2023-09-30T02:33:02;14.60;93.80
42095;DHT22;27753;55.724;37.612;2023-09-30T02:35:28;14.60;93.80
42095;DHT22;27753;55.724;37.612;2023-09-30T02:37:54;14.60;93.50
42095;DHT22;27753;55.724;37.612;2023-09-30T02:40:20;14.50;94.00
42095;DHT22;27753;55.724;37.612;2023-09-30T02:42:46;14.50;93.80
42095;DHT22;27753;55.724;37.612;2023-09-30T02:45:16;14.50;93.90
42095;DHT22;27753;55.724;37.612;2023-09-30T02:47:43;14.50;93.90
42095;DHT22;27753;55.724;37.612;2023-09-30T02:50:09;14.50;94.00
42095;DHT22;27753;55.724;37.612;2023-09-30T02:52:40;14.50;94.00
42095;DHT22;27753;55.724;37.612;2023-09-30T02:55:10;14.50;94.00
42095;DHT22;27753;55.724;37.612;2023-09-30T02:57:36;14.40;94.00
42095;DHT22;27753;55.724;37.612;2023-09-30T03:00:06;14.40;94.10
42095;DHT22;27753;55.724;37.612;2023-09-30T03:02:53;14.40;94.10
42095;DHT22;27753;55.724;37.612;2023-09-30T03:05:19;14.40;94.20
42095;DHT22;27753;55.724;37.612;2023-09-30T03:07:45;14.30;94.20
42095;DHT22;27753;55.724;37.612;2023-09-30T03:10:12;14.30;94.20
42095;DHT22;27753;55.724;37.612;2023-09-30T03:12:39;14.30;94.30
42095;DHT22;27753;55.724;37.612;2023-09-30T03:15:05;14.20;94.30
42095;DHT22;27753;55.724;37.612;2023-09-30T03:17:32;14.20;94.50
42095;DHT22;27753;55.724;37.612;2023-09-30T03:20:01;14.10;94.50
42095;DHT22;27753;55.724;37.612;2023-09-30T03:22:27;14.10;94.70
42095;DHT22;27753;55.724;37.612;2023-09-30T03:24:57;14.20;94.80
42095;DHT22;27753;55.724;37.612;2023-09-30T03:27:23;14.20;94.90
42095;DHT22;27753;55.724;37.612;2023-09-30T03:29:49;14.20;94.70
42095;DHT22;27753;55.724;37.612;2023-09-30T03:32:15;14.20;94.60
42095;DHT22;27753;55.724;37.612;2023-09-30T03:34:40;14.30;94.60
42095;DHT22;27753;55.724;37.612;2023-09-30T03:37:10;14.30;94.60
42095;DHT22;27753;55.724;37.612;2023-09-30T03:39:36;14.30;94.60
42095;DHT22;27753;55.724;37.612;2023-09-30T03:42:02;14.30;94.50
42095;DHT22;27753;55.724;37.612;2023-09-30T03:44:29;14.30;94.50
42095;DHT22;27753;55.724;37.612;2023-09-30T03:46:54;14.40;94.40
42095;DHT22;27753;55.724;37.612;2023-09-30T03:49:20;14.40;94.40
42095;DHT22;27753;55.724;37.612;2023-09-30T03:51:46;14.40;94.30
42095;DHT22;27753;55.724;37.612;2023-09-30T03:54:12;14.40;94.30
42095;DHT22;27753;55.724;37.612;2023-09-30T03:56:38;14.40;94.30
42095;DHT22;27753;55.724;37.612;2023-09-30T03:59:04;14.40;94.30
42095;DHT22;27753;55.724;37.612;2023-09-30T04:01:30;14.40;94.30
42095;DHT22;27753;55.724;37.612;2023-09-30T04:03:56;14.50;94.30
42095;DHT22;27753;55.724;37.612;2023-09-30T04:06:22;14.50;94.30
42095;DHT22;27753;55.724;37.612;2023-09-30T04:08:49;14.50;94.50
42095;DHT22;27753;55.724;37.612;2023-09-30T04:11:15;14.40;94.60
42095;DHT22;27753;55.724;37.612;2023-09-30T04:13:47;14.40;94.60
42095;DHT22;27753;55.724;37.612;2023-09-30T04:16:12;14.50;94.40
42095;DHT22;27753;55.724;37.612;2023-09-30T04:18:38;14.60;94.30
42095;DHT22;27753;55.724;37.612;2023-09-30T04:21:06;14.60;94.20
42095;DHT22;27753;55.724;37.612;2023-09-30T04:23:33;14.60;94.30
42095;DHT22;27753;55.724;37.612;2023-09-30T04:26:02;14.70;94.20
42095;DHT22;27753;55.724;37.612;2023-09-30T04:28:28;14.70;94.10
42095;DHT22;27753;55.724;37.612;2023-09-30T04:30:54;14.80;94.10
42095;DHT22;27753;55.724;37.612;2023-09-30T04:33:21;14.80;94.00
42095;DHT22;27753;55.724;37.612;2023-09-30T04:35:50;14.80;93.90
42095;DHT22;27753;55.724;37.612;2023-09-30T04:38:16;14.90;93.80
42095;DHT22;27753;55.724;37.612;2023-09-30T04:40:42;15.00;93.70
42095;DHT22;27753;55.724;37.612;2023-09-30T04:43:10;15.00;93.80
42095;DHT22;27753;55.724;37.612;2023-09-30T04:45:36;15.10;93.70
42095;DHT22;27753;55.724;37.612;2023-09-30T04:48:02;15.10;93.60
42095;DHT22;27753;55.724;37.612;2023-09-30T04:50:28;15.20;93.60
42095;DHT22;27753;55.724;37.612;2023-09-30T04:52:55;15.20;93.40
42095;DHT22;27753;55.724;37.612;2023-09-30T04:55:22;15.20;93.30
42095;DHT22;27753;55.724;37.612;2023-09-30T04:57:47;15.20;93.30
42095;DHT22;27753;55.724;37.612;2023-09-30T05:00:15;15.20;93.30
42095;DHT22;27753;55.724;37.612;2023-09-30T05:02:45;15.30;93.40
42095;DHT22;27753;55.724;37.612;2023-09-30T05:05:11;15.30;93.50
42095;DHT22;27753;55.724;37.612;2023-09-30T05:07:37;15.40;93.40
42095;DHT22;27753;55.724;37.612;2023-09-30T05:10:04;15.40;93.30
42095;DHT22;27753;55.724;37.612;2023-09-30T05:12:36;15.50;93.20
42095;DHT22;27753;55.724;37.612;2023-09-30T05:15:03;15.50;93.10
42095;DHT22;27753;55.724;37.612;2023-09-30T05:17:29;15.60;93.00
42095;DHT22;27753;55.724;37.612;2023-09-30T05:19:58;15.60;93.00
42095;DHT22;27753;55.724;37.612;2023-09-30T05:22:24;15.70;92.90
42095;DHT22;27753;55.724;37.612;2023-09-30T05:24:51;15.80;92.90
42095;DHT22;27753;55.724;37.612;2023-09-30T05:27:18;15.80;92.70
42095;DHT22;27753;55.724;37.612;2023-09-30T05:29:44;15.90;92.50
42095;DHT22;27753;55.724;37.612;2023-09-30T05:32:10;16.00;92.40
42095;DHT22;27753;55.724;37.612;2023-09-30T05:34:36;16.10;92.30
42095;DHT22;27753;55.724;37.612;2023-09-30T05:37:04;16.20;92.30
42095;DHT22;27753;55.724;37.612;2023-09-30T05:39:30;16.20;92.10
42095;DHT22;27753;55.724;37.612;2023-09-30T05:42:00;16.30;91.90
42095;DHT22;27753;55.724;37.612;2023-09-30T05:44:26;16.50;91.90
42095;DHT22;27753;55.724;37.612;2023-09-30T05:46:53;16.50;91.70
42095;DHT22;27753;55.724;37.612;2023-09-30T05:49:20;16.60;91.50
42095;DHT22;27753;55.724;37.612;2023-09-30T05:51:45;16.70;91.20
42095;DHT22;27753;55.724;37.612;2023-09-30T05:54:12;16.80;91.30
42095;DHT22;27753;55.724;37.612;2023-09-30T05:56:38;16.80;90.90
42095;DHT22;27753;55.724;37.612;2023-09-30T05:59:08;16.90;90.80
42095;DHT22;27753;55.724;37.612;2023-09-30T06:01:34;17.00;90.70
42095;DHT22;27753;55.724;37.612;2023-09-30T06:04:01;17.10;90.50
42095;DHT22;27753;55.724;37.612;2023-09-30T06:06:28;17.20;90.20
42095;DHT22;27753;55.724;37.612;2023-09-30T06:08:57;17.30;90.00
42095;DHT22;27753;55.724;37.612;2023-09-30T06:11:24;17.40;90.00
42095;DHT22;27753;55.724;37.612;2023-09-30T06:13:56;17.40;89.30
42095;DHT22;27753;55.724;37.612;2023-09-30T06:16:25;17.50;89.70
42095;DHT22;27753;55.724;37.612;2023-09-30T06:18:52;17.60;88.80
42095;DHT22;27753;55.724;37.612;2023-09-30T06:21:19;17.70;88.10
42095;DHT22;27753;55.724;37.612;2023-09-30T06:23:49;17.80;87.70
42095;DHT22;27753;55.724;37.612;2023-09-30T06:26:17;17.80;87.90
42095;DHT22;27753;55.724;37.612;2023-09-30T06:28:44;17.90;87.60
42095;DHT22;27753;55.724;37.612;2023-09-30T06:31:10;18.00;87.20
42095;DHT22;27753;55.724;37.612;2023-09-30T06:33:37;18.10;86.70
42095;DHT22;27753;55.724;37.612;2023-09-30T06:36:10;18.20;86.50
42095;DHT22;27753;55.724;37.612;2023-09-30T06:38:36;18.30;86.50
42095;DHT22;27753;55.724;37.612;2023-09-30T06:41:03;18.40;86.40
42095;DHT22;27753;55.724;37.612;2023-09-30T06:43:29;18.50;85.90
42095;DHT22;27753;55.724;37.612;2023-09-30T06:45:55;18.60;85.30
42095;DHT22;27753;55.724;37.612;2023-09-30T06:48:21;18.70;84.80
42095;DHT22;27753;55.724;37.612;2023-09-30T06:50:48;18.80;83.90
42095;DHT22;27753;55.724;37.612;2023-09-30T06:53:18;18.90;83.20
42095;DHT22;27753;55.724;37.612;2023-09-30T06:55:45;19.00;82.70
42095;DHT22;27753;55.724;37.612;2023-09-30T06:58:11;19.10;82.20
42095;DHT22;27753;55.724;37.612;2023-09-30T07:00:38;19.20;81.70
42095;DHT22;27753;55.724;37.612;2023-09-30T07:03:04;19.30;81.30
42095;DHT22;27753;55.724;37.612;2023-09-30T07:05:30;19.40;81.10
42095;DHT22;27753;55.724;37.612;2023-09-30T07:07:57;19.50;81.00
42095;DHT22;27753;55.724;37.612;2023-09-30T07:10:23;19.60;80.60
42095;DHT22;27753;55.724;37.612;2023-09-30T07:12:48;19.70;80.20
42095;DHT22;27753;55.724;37.612;2023-09-30T07:15:14;19.80;80.00
42095;DHT22;27753;55.724;37.612;2023-09-30T07:17:40;19.90;80.00
42095;DHT22;27753;55.724;37.612;2023-09-30T07:20:07;20.10;79.90
42095;DHT22;27753;55.724;37.612;2023-09-30T07:22:34;20.70;78.70
42095;DHT22;27753;55.724;37.612;2023-09-30T07:25:00;21.90;76.10
42095;DHT22;27753;55.724;37.612;2023-09-30T07:27:26;23.30;71.60
42095;DHT22;27753;55.724;37.612;2023-09-30T07:29:51;24.50;68.00
42095;DHT22;27753;55.724;37.612;2023-09-30T07:32:17;25.20;63.80
42095;DHT22;27753;55.724;37.612;2023-09-30T07:34:43;25.90;62.30
42095;DHT22;27753;55.724;37.612;2023-09-30T07:37:09;26.50;59.50
42095;DHT22;27753;55.724;37.612;2023-09-30T07:39:35;26.90;59.00
42095;DHT22;27753;55.724;37.612;2023-09-30T07:44:28;27.50;57.30
42095;DHT22;27753;55.724;37.612;2023-09-30T07:46:56;28.80;55.80
42095;DHT22;27753;55.724;37.612;2023-09-30T07:49:22;29.20;53.30
42095;DHT22;27753;55.724;37.612;2023-09-30T07:51:49;29.90;51.90
42095;DHT22;27753;55.724;37.612;2023-09-30T07:54:15;30.50;54.30
42095;DHT22;27753;55.724;37.612;2023-09-30T07:59:08;31.30;48.20
42095;DHT22;27753;55.724;37.612;2023-09-30T08:01:35;31.60;48.00
42095;DHT22;27753;55.724;37.612;2023-09-30T08:04:01;32.10;47.00
42095;DHT22;27753;55.724;37.612;2023-09-30T08:06:27;32.50;46.20
42095;DHT22;27753;55.724;37.612;2023-09-30T08:26:05;32.80;45.50
42095;DHT22;27753;55.724;37.612;2023-09-30T08:28:31;33.90;42.80
42095;DHT22;27753;55.724;37.612;2023-09-30T08:31:01;34.10;45.00
42095;DHT22;27753;55.724;37.612;2023-09-30T08:33:32;34.50;45.50
42095;DHT22;27753;55.724;37.612;2023-09-30T08:36:04;35.00;41.90
42095;DHT22;27753;55.724;37.612;2023-09-30T08:38:40;35.50;41.10
42095;DHT22;27753;55.724;37.612;2023-09-30T08:41:07;36.00;40.90
42095;DHT22;27753;55.724;37.612;2023-09-30T08:43:40;36.30;40.10
42095;DHT22;27753;55.724;37.612;2023-09-30T08:46:07;36.30;39.80
42095;DHT22;27753;55.724;37.612;2023-09-30T08:48:33;36.40;39.80
42095;DHT22;27753;55.724;37.612;2023-09-30T08:51:00;36.70;39.80
42095;DHT22;27753;55.724;37.612;2023-09-30T08:53:29;37.10;39.10
42095;DHT22;27753;55.724;37.612;2023-09-30T08:55:56;36.50;38.20
42095;DHT22;27753;55.724;37.612;2023-09-30T08:58:28;35.90;38.60
42095;DHT22;27753;55.724;37.612;2023-09-30T09:00:55;35.90;39.20
42095;DHT22;27753;55.724;37.612;2023-09-30T09:03:22;36.10;39.00
42095;DHT22;27753;55.724;37.612;2023-09-30T09:05:57;36.60;38.70
42095;DHT22;27753;55.724;37.612;2023-09-30T09:08:25;37.10;38.20
42095;DHT22;27753;55.724;37.612;2023-09-30T09:10:59;36.60;37.50
42095;DHT22;27753;55.724;37.612;2023-09-30T09:13:26;36.50;37.70
42095;DHT22;27753;55.724;37.612;2023-09-30T09:16:11;36.10;37.80
42095;DHT22;27753;55.724;37.612;2023-09-30T09:18:37;36.10;38.50
42095;DHT22;27753;55.724;37.612;2023-09-30T09:21:12;36.20;38.00
42095;DHT22;27753;55.724;37.612;2023-09-30T09:23:40;36.20;38.40
42095;DHT22;27753;55.724;37.612;2023-09-30T09:26:06;35.80;37.80
42095;DHT22;27753;55.724;37.612;2023-09-30T09:28:37;35.60;38.30
42095;DHT22;27753;55.724;37.612;2023-09-30T09:31:22;35.20;38.00
42095;DHT22;27753;55.724;37.612;2023-09-30T09:33:51;35.20;38.70
42095;DHT22;27753;55.724;37.612;2023-09-30T09:36:17;35.60;38.20
42095;DHT22;27753;55.724;37.612;2023-09-30T09:38:49;35.40;37.60
42095;DHT22;27753;55.724;37.612;2023-09-30T09:41:18;34.90;38.40
42095;DHT22;27753;55.724;37.612;2023-09-30T09:43:48;34.50;38.20
42095;DHT22;27753;55.724;37.612;2023-09-30T09:46:16;33.00;38.90
42095;DHT22;27753;55.724;37.612;2023-09-30T09:48:45;31.80;40.90
42095;DHT22;27753;55.724;37.612;2023-09-30T09:51:13;31.50;41.40
42095;DHT22;27753;55.724;37.612;2023-09-30T09:53:40;31.40;41.60
42095;DHT22;27753;55.724;37.612;2023-09-30T09:56:08;31.50;41.70
42095;DHT22;27753;55.724;37.612;2023-09-30T09:58:39;31.40;41.30
42095;DHT22;27753;55.724;37.612;2023-09-30T10:01:10;30.80;42.00
42095;DHT22;27753;55.724;37.612;2023-09-30T10:03:37;30.50;42.10
42095;DHT22;27753;55.724;37.612;2023-09-30T10:06:04;30.90;42.10
42095;DHT22;27753;55.724;37.612;2023-09-30T10:08:40;31.60;41.10
42095;DHT22;27753;55.724;37.612;2023-09-30T10:13:55;31.20;40.60
42095;DHT22;27753;55.724;37.612;2023-09-30T11:49:42;27.20;45.10
42095;DHT22;27753;55.724;37.612;2023-09-30T11:52:13;23.90;54.70
42095;DHT22;27753;55.724;37.612;2023-09-30T11:54:44;23.60;54.50
42095;DHT22;27753;55.724;37.612;2023-09-30T11:57:11;23.50;54.60
42095;DHT22;27753;55.724;37.612;2023-09-30T11:59:37;23.50;54.60
42095;DHT22;27753;55.724;37.612;2023-09-30T12:02:05;23.40;54.50
42095;DHT22;27753;55.724;37.612;2023-09-30T12:04:37;23.40;55.50
42095;DHT22;27753;55.724;37.612;2023-09-30T12:07:04;23.30;55.50
42095;DHT22;27753;55.724;37.612;2023-09-30T12:09:30;23.30;55.70
42095;DHT22;27753;55.724;37.612;2023-09-30T12:11:57;23.20;55.80
42095;DHT22;27753;55.724;37.612;2023-09-30T12:14:24;23.20;56.80
42095;DHT22;27753;55.724;37.612;2023-09-30T12:16:50;23.10;56.00
42095;DHT22;27753;55.724;37.612;2023-09-30T12:19:19;23.10;55.70
42095;DHT22;27753;55.724;37.612;2023-09-30T12:21:46;23.10;55.80
42095;DHT22;27753;55.724;37.612;2023-09-30T12:24:14;23.10;55.90
42095;DHT22;27753;55.724;37.612;2023-09-30T12:26:48;23.10;56.20
42095;DHT22;27753;55.724;37.612;2023-09-30T12:29:22;23.00;56.00
42095;DHT22;27753;55.724;37.612;2023-09-30T12:31:50;23.10;56.00
42095;DHT22;27753;55.724;37.612;2023-09-30T12:34:16;23.10;55.90
42095;DHT22;27753;55.724;37.612;2023-09-30T12:36:43;23.00;56.00
42095;DHT22;27753;55.724;37.612;2023-09-30T12:39:09;22.90;56.40
42095;DHT22;27753;55.724;37.612;2023-09-30T12:41:40;23.00;56.60
42095;DHT22;27753;55.724;37.612;2023-09-30T12:44:06;23.10;56.70
42095;DHT22;27753;55.724;37.612;2023-09-30T12:46:33;23.20;56.30
42095;DHT22;27753;55.724;37.612;2023-09-30T12:49:08;23.30;56.00
42095;DHT22;27753;55.724;37.612;2023-09-30T12:51:35;23.30;55.90
42095;DHT22;27753;55.724;37.612;2023-09-30T12:54:04;23.30;56.10
42095;DHT22;27753;55.724;37.612;2023-09-30T12:56:30;23.30;56.20
42095;DHT22;27753;55.724;37.612;2023-09-30T12:58:57;23.30;56.40
42095;DHT22;27753;55.724;37.612;2023-09-30T13:01:23;23.20;56.20
42095;DHT22;27753;55.724;37.612;2023-09-30T13:03:49;23.10;56.60
42095;DHT22;27753;55.724;37.612;2023-09-30T13:06:15;23.00;57.10
42095;DHT22;27753;55.724;37.612;2023-09-30T13:08:42;23.00;57.50
42095;DHT22;27753;55.724;37.612;2023-09-30T13:11:08;22.90;57.60
42095;DHT22;27753;55.724;37.612;2023-09-30T13:13:34;22.80;57.60
42095;DHT22;27753;55.724;37.612;2023-09-30T13:16:01;22.70;58.10
42095;DHT22;27753;55.724;37.612;2023-09-30T13:18:27;22.70;58.40
42095;DHT22;27753;55.724;37.612;2023-09-30T13:20:53;22.60;58.20
42095;DHT22;27753;55.724;37.612;2023-09-30T13:23:20;22.50;58.50
42095;DHT22;27753;55.724;37.612;2023-09-30T13:25:46;22.60;58.50
42095;DHT22;27753;55.724;37.612;2023-09-30T13:28:13;22.60;58.50
42095;DHT22;27753;55.724;37.612;2023-09-30T13:30:39;22.70;58.70
42095;DHT22;27753;55.724;37.612;2023-09-30T13:33:05;22.70;58.40
42095;DHT22;27753;55.724;37.612;2023-09-30T13:35:31;22.70;58.30
42095;DHT22;27753;55.724;37.612;2023-09-30T13:37:57;22.80;58.30
42095;DHT22;27753;55.724;37.612;2023-09-30T13:40:23;22.90;58.00
42095;DHT22;27753;55.724;37.612;2023-09-30T13:42:49;22.80;57.80
42095;DHT22;27753;55.724;37.612;2023-09-30T13:45:15;22.80;58.30
42095;DHT22;27753;55.724;37.612;2023-09-30T13:47:44;22.70;57.90
42095;DHT22;27753;55.724;37.612;2023-09-30T13:50:10;22.50;58.30
42095;DHT22;27753;55.724;37.612;2023-09-30T13:52:36;22.40;58.60
42095;DHT22;27753;55.724;37.612;2023-09-30T13:55:02;22.30;58.90
42095;DHT22;27753;55.724;37.612;2023-09-30T13:57:30;22.30;59.40
42095;DHT22;27753;55.724;37.612;2023-09-30T13:59:56;22.20;60.10
42095;DHT22;27753;55.724;37.612;2023-09-30T14:02:22;22.10;59.50
42095;DHT22;27753;55.724;37.612;2023-09-30T14:04:49;22.00;59.60
42095;DHT22;27753;55.724;37.612;2023-09-30T14:07:14;22.00;59.90
42095;DHT22;27753;55.724;37.612;2023-09-30T14:09:43;21.90;60.80
42095;DHT22;27753;55.724;37.612;2023-09-30T14:12:09;21.90;60.20
42095;DHT22;27753;55.724;37.612;2023-09-30T14:14:35;21.80;60.60
42095;DHT22;27753;55.724;37.612;2023-09-30T14:17:02;21.70;60.80
42095;DHT22;27753;55.724;37.612;2023-09-30T14:19:37;21.70;60.90
42095;DHT22;27753;55.724;37.612;2023-09-30T14:22:05;21.60;61.00
42095;DHT22;27753;55.724;37.612;2023-09-30T14:24:32;21.60;61.20
42095;DHT22;27753;55.724;37.612;2023-09-30T14:27:02;21.60;61.20
42095;DHT22;27753;55.724;37.612;2023-09-30T14:29:29;21.50;61.10
42095;DHT22;27753;55.724;37.612;2023-09-30T14:31:55;21.50;61.50
42095;DHT22;27753;55.724;37.612;2023-09-30T14:34:22;21.40;61.70
42095;DHT22;27753;55.724;37.612;2023-09-30T14:36:48;21.40;61.50
42095;DHT22;27753;55.724;37.612;2023-09-30T14:39:13;21.30;61.60
42095;DHT22;27753;55.724;37.612;2023-09-30T14:41:42;21.30;61.90
42095;DHT22;27753;55.724;37.612;2023-09-30T14:44:08;21.20;62.10
42095;DHT22;27753;55.724;37.612;2023-09-30T14:46:38;21.20;61.80
42095;DHT22;27753;55.724;37.612;2023-09-30T14:49:05;21.10;62.40
42095;DHT22;27753;55.724;37.612;2023-09-30T14:51:35;21.10;62.50
42095;DHT22;27753;55.724;37.612;2023-09-30T14:54:02;21.00;62.60
42095;DHT22;27753;55.724;37.612;2023-09-30T14:56:28;21.00;62.70
42095;DHT22;27753;55.724;37.612;2023-09-30T14:58:56;21.00;62.40
42095;DHT22;27753;55.724;37.612;2023-09-30T15:01:22;20.80;63.10
42095;DHT22;27753;55.724;37.612;2023-09-30T15:03:49;20.80;63.30
42095;DHT22;27753;55.724;37.612;2023-09-30T15:06:15;20.80;63.60
42095;DHT22;27753;55.724;37.612;2023-09-30T15:08:41;20.80;63.70
42095;DHT22;27753;55.724;37.612;2023-09-30T15:11:13;20.70;63.70
42095;DHT22;27753;55.724;37.612;2023-09-30T15:13:40;20.70;63.80
42095;DHT22;27753;55.724;37.612;2023-09-30T15:16:15;20.60;63.90
42095;DHT22;27753;55.724;37.612;2023-09-30T15:18:41;20.60;64.10
42095;DHT22;27753;55.724;37.612;2023-09-30T15:21:06;20.50;64.10
42095;DHT22;27753;55.724;37.612;2023-09-30T15:23:32;20.50;64.30
42095;DHT22;27753;55.724;37.612;2023-09-30T15:25:58;20.50;64.30
42095;DHT22;27753;55.724;37.612;2023-09-30T15:28:24;20.40;64.50
42095;DHT22;27753;55.724;37.612;2023-09-30T15:30:53;20.30;64.80
42095;DHT22;27753;55.724;37.612;2023-09-30T15:33:19;20.30;64.90
42095;DHT22;27753;55.724;37.612;2023-09-30T15:35:45;20.30;65.10
42095;DHT22;27753;55.724;37.612;2023-09-30T15:38:12;20.30;65.30
42095;DHT22;27753;55.724;37.612;2023-09-30T15:40:54;20.20;65.50
42095;DHT22;27753;55.724;37.612;2023-09-30T15:43:23;20.20;65.60
42095;DHT22;27753;55.724;37.612;2023-09-30T15:45:50;20.10;65.80
42095;DHT22;27753;55.724;37.612;2023-09-30T15:48:16;20.10;66.10
42095;DHT22;27753;55.724;37.612;2023-09-30T15:50:42;20.00;66.10
42095;DHT22;27753;55.724;37.612;2023-09-30T15:53:08;19.90;66.30
42095;DHT22;27753;55.724;37.612;2023-09-30T15:55:34;20.00;66.40
42095;DHT22;27753;55.724;37.612;2023-09-30T15:58:01;19.90;66.60
42095;DHT22;27753;55.724;37.612;2023-09-30T16:00:27;19.80;66.60
42095;DHT22;27753;55.724;37.612;2023-09-30T16:02:53;19.80;66.90
42095;DHT22;27753;55.724;37.612;2023-09-30T16:05:18;19.80;67.00
42095;DHT22;27753;55.724;37.612;2023-09-30T16:07:44;19.70;67.20
42095;DHT22;27753;55.724;37.612;2023-09-30T16:10:11;19.70;67.80
42095;DHT22;27753;55.724;37.612;2023-09-30T16:12:37;19.70;67.20
42095;DHT22;27753;55.724;37.612;2023-09-30T16:15:05;19.70;67.20
42095;DHT22;27753;55.724;37.612;2023-09-30T16:17:31;19.70;67.50
42095;DHT22;27753;55.724;37.612;2023-09-30T16:19:57;19.60;67.40
42095;DHT22;27753;55.724;37.612;2023-09-30T16:22:23;19.60;67.50
42095;DHT22;27753;55.724;37.612;2023-09-30T16:24:49;19.50;67.70
42095;DHT22;27753;55.724;37.612;2023-09-30T16:27:15;19.50;67.90
42095;DHT22;27753;55.724;37.612;2023-09-30T16:29:41;19.50;68.10
42095;DHT22;27753;55.724;37.612;2023-09-30T16:32:06;19.50;68.30
42095;DHT22;27753;55.724;37.612;2023-09-30T16:34:33;19.40;68.40
42095;DHT22;27753;55.724;37.612;2023-09-30T16:36:59;19.30;68.80
42095;DHT22;27753;55.724;37.612;2023-09-30T16:39:26;19.30;69.00
42095;DHT22;27753;55.724;37.612;2023-09-30T16:41:52;19.30;69.20
42095;DHT22;27753;55.724;37.612;2023-09-30T16:44:18;19.30;69.50
42095;DHT22;27753;55.724;37.612;2023-09-30T16:46:45;19.30;69.80
42095;DHT22;27753;55.724;37.612;2023-09-30T16:49:11;19.30;69.90
42095;DHT22;27753;55.724;37.612;2023-09-30T16:51:36;19.20;70.00
42095;DHT22;27753;55.724;37.612;2023-09-30T16:54:05;19.20;70.10
42095;DHT22;27753;55.724;37.612;2023-09-30T16:56:31;19.20;70.30
42095;DHT22;27753;55.724;37.612;2023-09-30T16:58:56;19.20;70.40
42095;DHT22;27753;55.724;37.612;2023-09-30T17:01:22;19.20;70.80
42095;DHT22;27753;55.724;37.612;2023-09-30T17:03:49;19.20;70.80
42095;DHT22;27753;55.724;37.612;2023-09-30T17:06:14;19.10;70.90
42095;DHT22;27753;55.724;37.612;2023-09-30T17:08:41;19.20;71.00
42095;DHT22;27753;55.724;37.612;2023-09-30T17:11:07;19.10;71.10
42095;DHT22;27753;55.724;37.612;2023-09-30T17:13:34;19.10;71.10
42095;DHT22;27753;55.724;37.612;2023-09-30T17:15:59;19.10;71.10